createdAt,value
2024-02-21T00:04:34.751Z,18.81
2024-02-21T00:10:32.984Z,18.84
2024-02-21T00:16:36.901Z,18.84
2024-02-21T00:22:31.033Z,18.85
2024-02-21T00:27:45.156Z,18.84
2024-02-21T00:33:29.002Z,18.81
2024-02-21T00:39:12.807Z,18.78
2024-02-21T00:45:04.228Z,18.76
2024-02-21T00:50:28.566Z,18.73
2024-02-21T00:56:32.813Z,18.71
2024-02-21T01:01:59.179Z,18.68
2024-02-21T01:07:52.929Z,18.68
2024-02-21T01:13:46.830Z,18.69
2024-02-21T01:19:49.775Z,18.74
2024-02-21T01:25:52.716Z,18.78
2024-02-21T01:31:57.066Z,18.80
2024-02-21T01:37:51.439Z,18.83
2024-02-21T01:43:41.492Z,18.89
2024-02-21T01:49:45.147Z,18.94
2024-02-21T01:55:45.443Z,18.96
2024-02-21T02:01:40.309Z,18.99
2024-02-21T02:07:26.843Z,19.00
2024-02-21T02:13:30.776Z,19.00
2024-02-21T02:19:33.345Z,19.01
2024-02-21T02:25:37.186Z,19.00
2024-02-21T02:31:40.766Z,19.00
2024-02-21T02:37:27.308Z,18.98
2024-02-21T02:43:11.076Z,18.97
2024-02-21T02:49:12.812Z,18.96
2024-02-21T02:55:16.596Z,18.95
2024-02-21T03:01:12.584Z,18.96
2024-02-21T03:07:06.828Z,18.97
2024-02-21T03:13:10.609Z,18.97
2024-02-21T03:19:14.400Z,19.01
2024-02-21T03:25:19.107Z,19.04
2024-02-21T03:31:22.216Z,19.04
2024-02-21T03:37:26.281Z,19.02
2024-02-21T03:43:29.936Z,19.00
2024-02-21T03:49:33.747Z,18.99
2024-02-21T03:55:38.943Z,18.98
2024-02-21T04:01:42.681Z,18.96
2024-02-21T04:07:22.500Z,18.96
2024-02-21T04:13:26.245Z,18.94
2024-02-21T04:19:30.077Z,19.00
2024-02-21T04:25:33.991Z,19.03
2024-02-21T04:31:37.833Z,19.06
2024-02-21T04:37:41.621Z,19.08
2024-02-21T04:43:45.398Z,19.07
2024-02-21T04:49:48.906Z,19.06
2024-02-21T04:55:46.133Z,19.03
2024-02-21T05:01:49.900Z,19.00
2024-02-21T05:07:53.804Z,18.98
2024-02-21T05:13:57.578Z,18.96
2024-02-21T05:20:02.049Z,18.94
2024-02-21T05:26:06.248Z,18.93
2024-02-21T05:32:10.463Z,18.92
2024-02-21T05:38:14.199Z,18.97
2024-02-21T05:44:17.934Z,18.99
2024-02-21T05:50:15.129Z,19.00
2024-02-21T05:56:18.898Z,19.01
2024-02-21T06:02:22.647Z,19.00
2024-02-21T06:08:26.410Z,19.00
2024-02-21T06:14:30.065Z,18.98
2024-02-21T06:20:33.858Z,18.98
2024-02-21T06:26:37.731Z,18.96
2024-02-21T06:32:41.594Z,18.94
2024-02-21T06:38:45.362Z,18.92
2024-02-21T06:44:49.233Z,18.91
2024-02-21T06:50:52.972Z,18.91
2024-02-21T06:56:56.507Z,18.97
2024-02-21T07:03:00.233Z,19.00
2024-02-21T07:09:04.381Z,19.01
2024-02-21T07:15:07.985Z,19.04
2024-02-21T07:21:11.929Z,19.07
2024-02-21T07:27:15.517Z,19.08
2024-02-21T07:33:19.261Z,19.09
2024-02-21T07:39:22.984Z,19.09
2024-02-21T07:45:20.282Z,19.08
2024-02-21T07:51:24.084Z,19.15
2024-02-21T07:57:27.849Z,19.18
2024-02-21T08:02:52.043Z,19.20
2024-02-21T08:08:55.999Z,19.23
2024-02-21T08:14:59.703Z,19.30
2024-02-21T08:20:24.073Z,19.35
2024-02-21T08:26:28.067Z,19.38
2024-02-21T08:32:34.585Z,19.40
2024-02-21T08:38:38.543Z,19.41
2024-02-21T08:44:42.247Z,19.41
2024-02-21T08:50:46.098Z,19.50
2024-02-21T08:56:39.846Z,19.57
2024-02-21T09:02:33.533Z,19.58
2024-02-21T09:08:37.324Z,19.59
2024-02-21T09:14:00.936Z,19.57
2024-02-21T09:20:05.049Z,19.55
2024-02-21T09:26:09.084Z,19.54
2024-02-21T09:32:12.880Z,19.54
2024-02-21T09:38:10.042Z,19.56
2024-02-21T09:43:46.355Z,19.66
2024-02-21T09:49:41.039Z,19.72
2024-02-21T09:55:25.235Z,19.75
2024-02-21T10:00:29.158Z,19.77
2024-02-21T10:06:21.774Z,19.77
2024-02-21T10:12:09.155Z,19.79
2024-02-21T10:18:12.968Z,19.79
2024-02-21T10:24:25.634Z,19.78
2024-02-21T10:30:29.140Z,19.76
2024-02-21T10:36:25.691Z,19.74
2024-02-21T10:42:29.787Z,19.79
2024-02-21T10:48:23.356Z,19.81
2024-02-21T10:54:22.203Z,19.79
2024-02-21T11:00:25.756Z,19.75
2024-02-21T11:06:13.442Z,19.72
2024-02-21T11:12:17.339Z,19.71
2024-02-21T11:17:37.415Z,19.69
2024-02-21T11:23:45.566Z,19.68
2024-02-21T11:29:49.459Z,19.67
2024-02-21T11:36:02.055Z,19.67
2024-02-21T11:42:05.956Z,19.75
2024-02-21T11:47:18.806Z,19.79
2024-02-21T11:52:50.918Z,19.80
2024-02-21T11:58:36.075Z,19.82
2024-02-21T12:04:40.140Z,19.81
2024-02-21T12:10:36.724Z,19.78
2024-02-21T12:16:40.548Z,19.76
2024-02-21T12:23:04.907Z,19.73
2024-02-21T12:29:09.336Z,19.72
2024-02-21T12:35:13.173Z,19.70
2024-02-21T12:41:17.404Z,19.76
2024-02-21T12:47:12.372Z,19.78
2024-02-21T12:53:22.789Z,19.78
2024-02-21T12:59:12.718Z,19.76
2024-02-21T13:05:16.655Z,19.75
2024-02-21T13:10:46.616Z,19.74
2024-02-21T13:16:40.474Z,19.72
2024-02-21T13:22:28.532Z,19.70
2024-02-21T13:27:52.444Z,19.69
2024-02-21T13:33:39.714Z,19.67
2024-02-21T13:39:39.012Z,19.72
2024-02-21T13:45:43.055Z,19.74
2024-02-21T13:51:45.414Z,19.75
2024-02-21T13:57:49.083Z,19.76
2024-02-21T14:03:51.462Z,19.75
2024-02-21T14:09:55.183Z,19.74
2024-02-21T14:15:51.933Z,19.72
2024-02-21T14:21:55.838Z,19.70
2024-02-21T14:27:58.444Z,19.70
2024-02-21T14:34:02.405Z,19.76
2024-02-21T14:40:06.328Z,19.80
2024-02-21T14:46:10.264Z,19.82
2024-02-21T14:52:04.066Z,19.82
2024-02-21T14:57:52.821Z,19.81
2024-02-21T15:03:56.576Z,19.81
2024-02-21T15:10:00.385Z,19.80
2024-02-21T15:15:55.192Z,19.78
2024-02-21T15:21:48.957Z,19.76
2024-02-21T15:27:45.458Z,19.81
2024-02-21T15:33:49.398Z,19.84
2024-02-21T15:39:53.368Z,19.83
2024-02-21T15:45:37.136Z,19.83
2024-02-21T15:51:05.442Z,19.82
2024-02-21T15:57:09.212Z,19.82
2024-02-21T16:03:13.017Z,19.81
2024-02-21T16:08:30.613Z,19.80
2024-02-21T16:14:26.930Z,19.87
2024-02-21T16:20:18.112Z,19.92
2024-02-21T16:26:14.365Z,19.91
2024-02-21T16:32:18.160Z,19.92
2024-02-21T16:38:03.677Z,19.98
2024-02-21T16:44:07.665Z,20.06
2024-02-21T16:50:11.669Z,20.09
2024-02-21T16:55:37.358Z,20.19
2024-02-21T17:01:21.418Z,20.23
2024-02-21T17:07:25.312Z,20.25
2024-02-21T17:13:29.279Z,20.27
2024-02-21T17:19:33.346Z,20.28
2024-02-21T17:25:37.282Z,20.28
2024-02-21T17:31:40.065Z,20.28
2024-02-21T17:37:36.451Z,20.32
2024-02-21T17:43:22.471Z,20.31
2024-02-21T17:49:04.389Z,20.28
2024-02-21T17:54:47.753Z,20.26
2024-02-21T18:00:42.644Z,20.21
2024-02-21T18:06:46.145Z,20.20
2024-02-21T18:12:49.930Z,20.18
2024-02-21T18:18:52.528Z,20.23
2024-02-21T18:24:45.166Z,20.26
2024-02-21T18:30:49.264Z,20.26
2024-02-21T18:36:51.923Z,20.27
2024-02-21T18:42:55.788Z,20.24
2024-02-21T18:48:32.081Z,20.21
2024-02-21T18:54:07.129Z,20.21
2024-02-21T18:59:50.775Z,20.28
2024-02-21T19:04:57.360Z,20.33
2024-02-21T19:10:32.012Z,20.34
2024-02-21T19:16:11.375Z,20.34
2024-02-21T19:21:20.367Z,20.34
2024-02-21T19:27:11.422Z,20.32
2024-02-21T19:33:14.433Z,20.30
2024-02-21T19:39:10.423Z,20.27
2024-02-21T19:45:14.321Z,20.26
2024-02-21T19:50:23.437Z,20.25
2024-02-21T19:56:20.980Z,20.29
2024-02-21T20:02:24.679Z,20.34
2024-02-21T20:08:01.123Z,20.35
2024-02-21T20:13:27.264Z,20.37
2024-02-21T20:19:20.879Z,20.38
2024-02-21T20:25:24.632Z,20.38
2024-02-21T20:31:21.477Z,20.44
2024-02-21T20:37:18.709Z,20.50
2024-02-21T20:43:22.680Z,20.49
2024-02-21T20:49:28.748Z,20.46
2024-02-21T20:55:28.159Z,20.40
2024-02-21T21:01:39.088Z,20.34
2024-02-21T21:07:35.517Z,20.36
2024-02-21T21:13:26.757Z,20.35
2024-02-21T21:19:33.380Z,20.31
2024-02-21T21:25:18.351Z,20.29
2024-02-21T21:30:41.270Z,20.25
2024-02-21T21:36:07.533Z,20.22
2024-02-21T21:42:03.015Z,20.28
2024-02-21T21:47:49.537Z,20.33
2024-02-21T21:53:36.063Z,20.35
2024-02-21T21:59:30.824Z,20.36
2024-02-21T22:05:34.578Z,20.37
2024-02-21T22:11:09.694Z,20.37
2024-02-21T22:17:14.845Z,20.43
2024-02-21T22:23:13.373Z,20.53
2024-02-21T22:29:17.130Z,20.54
2024-02-21T22:35:02.469Z,20.56
2024-02-21T22:41:06.547Z,20.54
2024-02-21T22:47:10.263Z,20.52
2024-02-21T22:52:56.886Z,20.57
2024-02-21T22:58:00.372Z,20.58
2024-02-21T23:03:04.268Z,20.62
2024-02-21T23:09:03.728Z,20.62
2024-02-21T23:15:07.372Z,20.57
2024-02-21T23:21:03.892Z,20.61
2024-02-21T23:26:35.354Z,20.62
2024-02-21T23:32:42.541Z,20.60
2024-02-21T23:38:35.248Z,20.59
2024-02-21T23:44:36.472Z,20.56
2024-02-21T23:50:40.342Z,20.62
2024-02-21T23:56:44.020Z,20.59
